Time;durP1;ratioP1;P1;durP2;ratioP2;P2;SDS_P1;SDS_P2;PMS_P1;PMS_P2;Temp;Humidity;BMP_temperature;BMP_pressure;BME280_temperature;BME280_humidity;BME280_pressure;Samples;Min_cycle;Max_cycle;Signal;HPM_P1;HPM_P2
2022/05/08 00:02:07;;;;;;;4.10;3.60;;;22.10;53.10;23.40;101594.00;;;;5049018;28;20178;-51
2022/05/08 00:04:33;;;;;;;4.50;4.10;;;22.10;53.30;23.40;101593.00;;;;5049132;28;20210;-51
2022/05/08 00:06:59;;;;;;;4.50;4.10;;;22.10;53.20;23.40;101602.00;;;;5047293;28;20209;-50
2022/05/08 00:09:25;;;;;;;4.03;3.73;;;22.10;53.20;23.40;101589.00;;;;5048650;28;20170;-51
2022/05/08 00:11:52;;;;;;;4.00;3.70;;;22.10;53.20;23.40;101594.00;;;;5049028;28;20179;-52
2022/05/08 00:14:18;;;;;;;4.10;3.80;;;22.10;53.20;23.40;101589.00;;;;5048925;28;20198;-52
2022/05/08 00:16:44;;;;;;;4.73;4.20;;;22.00;53.10;23.40;101591.00;;;;5048372;28;20631;-51
2022/05/08 00:19:09;;;;;;;4.47;4.10;;;22.00;53.10;23.40;101603.00;;;;5048638;28;20232;-51
2022/05/08 00:21:35;;;;;;;4.10;3.80;;;22.00;53.20;23.30;101592.00;;;;5048950;28;20212;-50
2022/05/08 00:24:01;;;;;;;4.13;3.83;;;22.00;53.30;23.30;101597.00;;;;5048695;28;20205;-51
2022/05/08 00:26:26;;;;;;;4.33;4.00;;;22.00;53.20;23.30;101599.00;;;;5048539;28;20189;-51
2022/05/08 00:28:52;;;;;;;4.47;4.10;;;22.00;53.30;23.30;101601.00;;;;5048708;28;20701;-51
2022/05/08 00:31:18;;;;;;;4.40;4.10;;;22.00;53.20;23.30;101588.00;;;;5048768;28;20182;-52
2022/05/08 00:33:44;;;;;;;4.27;3.97;;;21.90;53.10;23.30;101602.00;;;;5048260;28;20201;-50
2022/05/08 00:36:09;;;;;;;4.20;3.90;;;22.00;53.30;23.30;101604.00;;;;5047935;28;20173;-50
2022/05/08 00:38:35;;;;;;;4.90;4.50;;;21.90;53.10;23.30;101601.00;;;;5048239;28;20589;-50
2022/05/08 00:41:01;;;;;;;4.73;4.33;;;21.90;53.30;23.30;101609.00;;;;5048388;28;20178;-51
2022/05/08 00:43:32;;;;;;;4.50;4.10;;;21.90;53.30;23.30;101618.00;;;;5048391;28;20192;-52
2022/05/08 00:46:17;;;;;;;4.57;4.17;;;21.90;53.30;23.20;101597.00;;;;5048096;28;20198;-51
2022/05/08 00:48:43;;;;;;;4.57;4.13;;;21.90;53.20;23.20;101600.00;;;;5048134;28;20218;-51
2022/05/08 00:51:12;;;;;;;4.40;4.00;;;21.90;53.20;23.20;101599.00;;;;5047877;28;20175;-51
2022/05/08 00:53:40;;;;;;;4.37;4.03;;;21.90;53.10;23.20;101594.00;;;;5052346;28;20179;-51
2022/05/08 00:56:14;;;;;;;4.57;4.17;;;21.90;53.20;23.10;101600.00;;;;5052719;28;20166;-52
2022/05/08 00:58:40;;;;;;;4.37;4.07;;;21.80;53.10;23.10;101595.00;;;;5049946;28;20167;-51
2022/05/08 01:01:07;;;;;;;4.60;4.00;;;21.80;53.10;23.10;101598.00;;;;5048104;28;20177;-51
2022/05/08 01:03:32;;;;;;;4.40;4.00;;;21.80;53.10;23.10;101592.00;;;;5047561;28;20268;-51
2022/05/08 01:05:58;;;;;;;5.80;4.40;;;21.80;53.10;23.10;101595.00;;;;5047471;28;20243;-53
2022/05/08 01:08:25;;;;;;;4.70;4.30;;;21.80;53.00;23.10;101591.00;;;;5046335;28;20241;-50
2022/05/08 01:10:53;;;;;;;4.40;4.00;;;21.80;53.00;23.10;101588.00;;;;5047822;28;20197;-52
2022/05/08 01:13:19;;;;;;;4.67;4.27;;;21.80;53.10;23.10;101592.00;;;;5048187;28;20174;-50
2022/05/08 01:15:48;;;;;;;4.30;4.00;;;21.80;53.10;23.00;101588.00;;;;5047725;28;20190;-51
2022/05/08 01:18:15;;;;;;;4.53;4.13;;;21.80;53.20;23.00;101591.00;;;;5047557;28;20216;-52
2022/05/08 01:20:42;;;;;;;4.33;4.00;;;21.80;53.20;23.00;101595.00;;;;5047634;28;20170;-50
2022/05/08 01:23:08;;;;;;;4.70;4.30;;;21.80;53.20;23.00;101593.00;;;;5047861;28;20201;-52
2022/05/08 01:25:34;;;;;;;4.27;3.97;;;21.80;53.10;23.00;101586.00;;;;5047336;28;20253;-52
2022/05/08 01:28:03;;;;;;;4.70;4.30;;;21.80;53.10;23.00;101595.00;;;;5046810;28;20264;-52
2022/05/08 01:30:29;;;;;;;4.13;3.83;;;21.70;53.10;23.00;101594.00;;;;5046704;28;20178;-50
2022/05/08 01:32:57;;;;;;;4.40;4.00;;;21.70;53.00;23.00;101596.00;;;;5047642;28;20694;-50
2022/05/08 01:35:24;;;;;;;4.23;3.93;;;21.70;53.20;23.00;101602.00;;;;5047517;28;20198;-51
2022/05/08 01:37:50;;;;;;;5.17;4.47;;;21.70;53.10;23.00;101590.00;;;;5047592;28;20189;-51
2022/05/08 01:40:17;;;;;;;4.50;4.10;;;21.70;53.20;22.90;101609.00;;;;5047322;28;20174;-51
2022/05/08 01:42:44;;;;;;;4.47;4.07;;;21.70;53.20;22.90;101605.00;;;;5047410;28;20666;-51
2022/05/08 01:45:11;;;;;;;4.70;4.40;;;21.70;53.20;22.90;101614.00;;;;5047137;28;20198;-50
2022/05/08 01:50:22;;;;;;;4.83;4.47;;;21.70;53.20;22.90;101608.00;;;;5047325;28;20162;-51
2022/05/08 01:52:49;;;;;;;4.47;3.80;;;21.60;53.20;22.90;101608.00;;;;5047419;28;20162;-51
2022/05/08 01:55:14;;;;;;;4.80;4.40;;;21.60;53.20;22.90;101617.00;;;;5047441;28;20277;-51
2022/05/08 01:57:40;;;;;;;4.40;4.00;;;21.60;53.20;22.90;101622.00;;;;5046991;28;20738;-51
2022/05/08 02:00:06;;;;;;;4.43;4.13;;;21.60;53.20;22.80;101615.00;;;;5047501;28;20172;-50
2022/05/08 02:02:32;;;;;;;4.20;3.80;;;21.60;53.30;22.80;101619.00;;;;5045795;28;20182;-51
2022/05/08 02:04:59;;;;;;;4.53;4.13;;;21.60;53.30;22.80;101620.00;;;;5047249;28;20252;-51
2022/05/08 02:07:25;;;;;;;4.63;4.27;;;21.60;53.20;22.80;101614.00;;;;5049172;28;20253;-51
2022/05/08 02:09:51;;;;;;;4.57;3.73;;;21.60;53.20;22.80;101619.00;;;;5051200;28;20682;-51
2022/05/08 02:12:16;;;;;;;4.07;3.77;;;21.60;53.20;22.80;101622.00;;;;5050781;28;20256;-50
2022/05/08 02:14:45;;;;;;;4.37;4.07;;;21.60;53.20;22.80;101625.00;;;;5051179;28;20259;-53
2022/05/08 02:17:11;;;;;;;4.20;3.90;;;21.50;53.10;22.70;101623.00;;;;5050886;28;20173;-53
2022/05/08 02:19:37;;;;;;;4.60;4.20;;;21.50;53.20;22.70;101624.00;;;;5051467;28;20239;-50
2022/05/08 02:22:03;;;;;;;4.43;4.13;;;21.50;53.20;22.70;101621.00;;;;5049997;28;20173;-52
2022/05/08 02:24:29;;;;;;;4.10;3.70;;;21.50;53.20;22.70;101609.00;;;;5051322;28;20679;-49
2022/05/08 02:26:54;;;;;;;4.70;4.30;;;21.50;53.20;22.70;101620.00;;;;5051025;28;20194;-52
2022/05/08 02:29:21;;;;;;;4.60;4.30;;;21.50;53.20;22.70;101555.00;;;;5058180;28;20178;-51
2022/05/08 02:31:46;;;;;;;4.60;4.20;;;21.50;53.30;22.70;101621.00;;;;5055198;28;20801;-51
2022/05/08 02:34:12;;;;;;;4.60;4.20;;;21.50;53.20;22.70;101625.00;;;;5051130;28;20194;-51
2022/05/08 02:36:38;;;;;;;4.50;4.10;;;21.50;53.20;22.70;101617.00;;;;5050871;28;20175;-50
2022/05/08 02:39:04;;;;;;;4.53;3.90;;;21.40;53.20;22.70;101629.00;;;;5050783;28;20206;-52
2022/05/08 02:41:29;;;;;;;4.40;4.00;;;21.40;53.20;22.70;101625.00;;;;5050350;28;20173;-50
2022/05/08 02:43:55;;;;;;;4.80;4.40;;;21.40;53.20;22.60;101627.00;;;;5050611;28;20166;-51
2022/05/08 02:46:21;;;;;;;3.80;3.50;;;21.40;53.20;22.60;101636.00;;;;5050485;28;20170;-50
2022/05/08 02:48:46;;;;;;;4.33;3.93;;;21.40;53.20;22.60;101630.00;;;;5050315;28;20229;-50
2022/05/08 02:51:12;;;;;;;4.07;3.77;;;21.40;53.20;22.60;101633.00;;;;5050266;28;20178;-52
2022/05/08 02:53:38;;;;;;;4.00;3.70;;;21.40;53.30;22.60;101636.00;;;;5050416;28;20166;-52
2022/05/08 02:58:48;;;;;;;4.10;3.80;;;21.40;53.30;22.60;101632.00;;;;5050293;28;20186;-53
2022/05/08 03:01:13;;;;;;;3.93;3.63;;;21.30;53.20;22.60;101629.00;;;;5050458;28;20174;-51
2022/05/08 03:03:39;;;;;;;3.80;3.50;;;21.30;53.20;22.50;101626.00;;;;5050693;28;20197;-52
2022/05/08 03:06:05;;;;;;;4.37;3.97;;;21.30;53.10;22.50;101629.00;;;;5049970;28;20198;-50
2022/05/08 03:08:31;;;;;;;4.03;3.70;;;21.30;53.70;22.50;101629.00;;;;5050433;28;20205;-51
2022/05/08 03:13:41;;;;;;;4.30;3.90;;;21.30;53.10;22.50;101622.00;;;;5050103;28;20201;-50
2022/05/08 03:16:10;;;;;;;4.20;3.80;;;21.30;53.10;22.50;101631.00;;;;5049861;28;20202;-51
2022/05/08 03:18:38;;;;;;;4.00;3.50;;;21.30;53.00;22.50;101631.00;;;;5048585;28;20677;-53
2022/05/08 03:21:07;;;;;;;3.80;3.50;;;21.30;53.00;22.50;101628.00;;;;5049756;28;20170;-51
2022/05/08 03:23:34;;;;;;;3.80;3.50;;;21.20;53.00;22.50;101628.00;;;;5050131;28;20174;-51
2022/05/08 03:26:00;;;;;;;4.20;3.80;;;21.20;53.00;22.50;101636.00;;;;5049957;28;20202;-51
2022/05/08 03:28:27;;;;;;;3.90;3.60;;;21.20;53.00;22.40;101640.00;;;;5050200;28;20678;-51
2022/05/08 03:30:52;;;;;;;3.60;3.30;;;21.20;52.90;22.40;101632.00;;;;5041979;28;20279;-51
2022/05/08 03:33:18;;;;;;;3.70;3.40;;;21.20;52.90;22.40;101638.00;;;;5037877;28;20646;-52
2022/05/08 03:35:44;;;;;;;5.37;3.67;;;21.20;52.90;22.40;101636.00;;;;5029514;28;20534;-51
2022/05/08 03:38:09;;;;;;;3.57;3.27;;;21.20;53.20;22.40;101643.00;;;;5029307;28;20841;-51
2022/05/08 03:40:36;;;;;;;3.93;3.60;;;21.20;53.30;22.40;101644.00;;;;5029634;28;20177;-50
2022/05/08 03:43:02;;;;;;;5.90;3.63;;;21.20;53.10;22.40;101638.00;;;;5029123;28;20253;-50
2022/05/08 03:45:29;;;;;;;4.73;3.30;;;21.20;53.20;22.40;101648.00;;;;5029465;28;20199;-50
2022/05/08 03:47:55;;;;;;;3.97;3.40;;;21.20;53.10;22.40;101647.00;;;;5029378;28;20705;-50
2022/05/08 03:50:20;;;;;;;3.63;3.17;;;21.10;53.10;22.40;101644.00;;;;5029177;28;20608;-49
2022/05/08 03:52:47;;;;;;;4.33;3.87;;;21.20;53.20;22.30;101638.00;;;;5029047;28;20173;-51
2022/05/08 03:55:15;;;;;;;3.50;3.20;;;21.20;53.30;22.30;101643.00;;;;5029114;28;20190;-50
2022/05/08 03:57:44;;;;;;;3.77;3.40;;;21.10;53.20;22.30;101643.00;;;;5029314;28;20254;-50
2022/05/08 04:00:11;;;;;;;4.17;3.73;;;21.10;53.30;22.30;101651.00;;;;5032999;28;20167;-51
2022/05/08 04:02:36;;;;;;;3.60;3.30;;;21.10;53.20;22.30;101648.00;;;;5032722;28;20179;-51
2022/05/08 04:05:03;;;;;;;3.70;3.40;;;21.10;53.20;22.30;101640.00;;;;5032012;28;20262;-51
2022/05/08 04:07:29;;;;;;;3.50;3.20;;;21.10;53.30;22.30;101645.00;;;;5029443;28;20210;-51
2022/05/08 04:09:55;;;;;;;4.47;3.50;;;21.00;53.10;22.30;101642.00;;;;5028996;28;20171;-52
2022/05/08 04:12:21;;;;;;;3.80;3.50;;;21.00;53.10;22.20;101648.00;;;;5028924;28;20197;-50
2022/05/08 04:14:47;;;;;;;4.90;3.73;;;21.00;53.10;22.20;101649.00;;;;5029109;28;20198;-51
2022/05/08 04:17:12;;;;;;;3.97;3.23;;;21.00;53.20;22.20;101648.00;;;;5028608;28;20188;-51
2022/05/08 04:19:38;;;;;;;4.13;3.70;;;21.00;53.10;22.20;101643.00;;;;5029264;28;20245;-53
2022/05/08 04:24:49;;;;;;;4.50;3.60;;;21.00;53.00;22.20;101659.00;;;;5028575;28;20278;-51
2022/05/08 04:27:14;;;;;;;3.73;3.43;;;21.00;53.10;22.20;101664.00;;;;5028242;28;20202;-50
2022/05/08 04:29:40;;;;;;;3.80;3.50;;;20.90;53.00;22.20;101674.00;;;;5028191;28;20164;-51
2022/05/08 04:32:06;;;;;;;3.97;3.53;;;20.90;53.00;22.10;101674.00;;;;5028104;28;20171;-51
2022/05/08 04:34:32;;;;;;;3.90;3.50;;;20.90;53.00;22.10;101673.00;;;;5028228;28;20849;-51
2022/05/08 04:36:58;;;;;;;4.17;3.30;;;20.90;52.90;22.10;101674.00;;;;5028266;28;20708;-50
2022/05/08 04:39:24;;;;;;;4.07;3.67;;;20.90;53.00;22.10;101683.00;;;;5028605;28;20286;-51
2022/05/08 04:41:49;;;;;;;4.67;3.90;;;20.90;53.10;22.10;101677.00;;;;5028188;28;20687;-51
2022/05/08 04:44:15;;;;;;;6.57;3.70;;;20.90;53.10;22.10;101679.00;;;;5027963;28;20194;-50
2022/05/08 04:46:41;;;;;;;3.90;3.60;;;20.90;53.10;22.10;101683.00;;;;5028334;28;20163;-53
2022/05/08 04:49:06;;;;;;;7.13;4.03;;;20.90;53.20;22.10;101691.00;;;;5026897;28;20190;-51
2022/05/08 04:51:32;;;;;;;4.20;3.40;;;20.80;53.10;22.10;101689.00;;;;5028607;28;20778;-50
2022/05/08 04:53:58;;;;;;;5.27;3.47;;;20.90;53.80;22.10;101688.00;;;;5028029;28;20182;-49
2022/05/08 04:56:24;;;;;;;3.83;3.53;;;20.90;53.20;22.00;101700.00;;;;5027839;28;20176;-53
2022/05/08 04:58:50;;;;;;;5.20;4.70;;;20.90;53.10;22.00;101693.00;;;;5027582;28;20166;-52
2022/05/08 05:01:15;;;;;;;6.10;5.50;;;20.80;52.70;22.00;101694.00;;;;5027809;28;20221;-52
2022/05/08 05:03:41;;;;;;;6.67;5.70;;;20.80;52.50;22.00;101701.00;;;;5026940;28;20583;-52
2022/05/08 05:06:07;;;;;;;7.40;6.70;;;20.70;52.30;21.70;101698.00;;;;5025932;28;20168;-52
2022/05/08 05:08:34;;;;;;;8.70;7.73;;;20.80;52.40;21.90;101706.00;;;;5027400;28;20226;-52
2022/05/08 05:11:00;;;;;;;7.60;6.90;;;20.80;51.90;21.90;101710.00;;;;5027584;28;20188;-52
2022/05/08 05:13:25;;;;;;;8.30;7.50;;;20.70;52.20;21.80;101718.00;;;;5027159;28;20171;-52
2022/05/08 05:15:52;;;;;;;9.83;7.47;;;20.70;51.90;21.80;101720.00;;;;5027286;28;20274;-53
2022/05/08 05:18:17;;;;;;;8.33;7.00;;;20.60;51.90;21.80;101724.00;;;;5027615;28;20178;-53
2022/05/08 05:20:45;;;;;;;7.23;6.53;;;20.50;51.90;21.70;101729.00;;;;5026897;28;20182;-52
2022/05/08 05:23:11;;;;;;;8.10;7.10;;;20.40;52.10;21.70;101727.00;;;;5026661;28;20188;-53
2022/05/08 05:25:37;;;;;;;7.60;6.83;;;20.40;51.90;21.60;101726.00;;;;5037193;28;20208;-52
2022/05/08 05:28:03;;;;;;;7.93;6.70;;;20.40;51.90;21.60;101733.00;;;;5032333;28;20729;-53
2022/05/08 05:30:29;;;;;;;9.10;7.80;;;20.40;51.90;21.60;101736.00;;;;5027189;28;20173;-52
2022/05/08 05:32:54;;;;;;;7.90;6.83;;;20.40;51.60;21.60;101733.00;;;;5026821;28;20174;-52
2022/05/08 05:35:20;;;;;;;7.27;6.57;;;20.40;51.70;21.50;101726.00;;;;5027147;28;20541;-52
2022/05/08 05:37:46;;;;;;;7.63;6.83;;;20.40;51.60;21.50;101733.00;;;;5026878;28;20245;-54
2022/05/08 05:40:12;;;;;;;7.90;7.20;;;20.20;51.60;21.50;101741.00;;;;5027162;28;20243;-53
2022/05/08 05:42:37;;;;;;;8.60;7.57;;;20.10;51.70;21.40;101746.00;;;;5026188;28;20174;-52
2022/05/08 05:45:04;;;;;;;8.77;7.50;;;20.10;51.60;21.40;101745.00;;;;5026803;28;20196;-52
2022/05/08 05:50:13;;;;;;;7.10;6.40;;;20.20;51.60;21.40;101757.00;;;;5027526;28;20235;-52
2022/05/08 05:52:39;;;;;;;8.90;6.63;;;20.20;51.50;21.30;101738.00;;;;5026384;28;20593;-53
2022/05/08 05:55:06;;;;;;;7.63;6.80;;;20.20;51.40;21.30;101749.00;;;;5026492;28;20194;-52
2022/05/08 05:57:36;;;;;;;7.43;6.40;;;20.10;51.50;21.30;101763.00;;;;5026477;28;20196;-52
2022/05/08 06:00:03;;;;;;;11.13;6.83;;;20.00;52.10;21.20;101757.00;;;;5026494;28;20181;-52
2022/05/08 06:02:29;;;;;;;8.43;7.63;;;20.00;51.50;21.20;101751.00;;;;5026376;28;20184;-53
2022/05/08 06:04:55;;;;;;;9.13;7.37;;;19.90;51.30;21.20;101748.00;;;;5026381;28;20228;-52
2022/05/08 06:07:20;;;;;;;9.23;7.40;;;19.80;51.60;21.20;101758.00;;;;5026409;28;20270;-51
2022/05/08 06:09:46;;;;;;;7.73;6.90;;;19.80;51.60;21.10;101752.00;;;;5026512;28;20199;-52
2022/05/08 06:12:12;;;;;;;8.13;7.30;;;19.70;51.70;21.10;101756.00;;;;5026597;28;20167;-51
2022/05/08 06:14:38;;;;;;;9.20;7.03;;;19.80;51.70;21.10;101762.00;;;;5026085;28;20191;-51
2022/05/08 06:17:03;;;;;;;8.73;7.13;;;19.80;51.80;21.10;101765.00;;;;5026350;28;20166;-52
2022/05/08 06:19:31;;;;;;;7.83;7.03;;;19.70;51.60;21.10;101774.00;;;;5026902;28;20244;-52
2022/05/08 06:21:57;;;;;;;8.37;7.50;;;19.70;51.60;21.00;101766.00;;;;5026708;28;20176;-51
2022/05/08 06:24:23;;;;;;;8.53;7.43;;;19.60;51.60;21.00;101762.00;;;;5026046;28;20976;-52
2022/05/08 06:26:48;;;;;;;12.27;7.50;;;19.50;51.80;21.00;101762.00;;;;5026238;28;20168;-52
2022/05/08 06:29:14;;;;;;;9.53;7.13;;;19.50;51.80;21.00;101762.00;;;;5026541;28;20171;-51
2022/05/08 06:31:40;;;;;;;7.87;6.50;;;19.60;51.60;21.00;101762.00;;;;5026434;28;20172;-52
2022/05/08 06:34:06;;;;;;;10.03;7.87;;;19.60;51.60;20.90;101761.00;;;;5025914;28;20191;-51
2022/05/08 06:36:32;;;;;;;10.17;7.50;;;19.60;51.60;20.90;101761.00;;;;5026209;28;20693;-51
2022/05/08 06:38:58;;;;;;;8.03;6.90;;;19.50;51.40;20.90;101767.00;;;;5026835;28;20171;-52
2022/05/08 06:41:24;;;;;;;10.30;7.53;;;19.50;51.70;20.90;101772.00;;;;5026050;28;20245;-51
2022/05/08 06:43:50;;;;;;;10.60;7.60;;;19.40;51.70;20.90;101771.00;;;;5025545;28;20178;-51
2022/05/08 06:46:16;;;;;;;9.70;7.57;;;19.40;51.80;20.80;101780.00;;;;5025952;28;20258;-53
2022/05/08 06:48:41;;;;;;;9.50;7.33;;;19.40;51.50;20.80;101786.00;;;;5026536;28;20214;-53
2022/05/08 06:51:07;;;;;;;8.30;6.60;;;19.30;51.80;20.80;101771.00;;;;5025407;28;20273;-50
2022/05/08 06:53:33;;;;;;;7.53;6.37;;;19.30;51.80;20.80;101782.00;;;;5030433;28;20171;-52
2022/05/08 06:55:59;;;;;;;8.37;6.57;;;19.40;51.90;20.80;101778.00;;;;5031520;28;20218;-51
2022/05/08 06:58:25;;;;;;;8.13;6.63;;;19.40;51.80;20.80;101778.00;;;;5031467;28;20229;-51
2022/05/08 07:03:36;;;;;;;8.57;7.07;;;19.40;51.60;20.70;101792.00;;;;5029430;28;20190;-52
2022/05/08 07:06:02;;;;;;;9.20;7.13;;;19.20;51.70;20.70;101787.00;;;;5029389;28;20394;-51
2022/05/08 07:08:27;;;;;;;8.00;6.67;;;19.20;51.90;20.70;101794.00;;;;5029859;28;20290;-52
2022/05/08 07:10:53;;;;;;;7.53;5.83;;;19.30;51.90;20.70;101790.00;;;;5029929;28;20167;-52
2022/05/08 07:13:23;;;;;;;7.23;5.73;;;19.40;51.70;20.70;101792.00;;;;5029179;28;20178;-52
2022/05/08 07:15:49;;;;;;;7.33;5.70;;;19.50;51.50;20.70;101795.00;;;;5028943;28;20571;-52
2022/05/08 07:18:14;;;;;;;6.93;5.73;;;19.60;51.30;20.70;101794.00;;;;5028948;28;20178;-52
2022/05/08 07:20:40;;;;;;;9.03;5.90;;;19.70;51.40;20.70;101806.00;;;;5027900;28;20182;-52
2022/05/08 07:23:06;;;;;;;9.03;5.67;;;19.60;51.20;20.70;101807.00;;;;5028470;28;20183;-52
2022/05/08 07:25:32;;;;;;;10.40;5.30;;;19.70;51.40;20.70;101809.00;;;;5029099;28;20198;-52
2022/05/08 07:27:57;;;;;;;7.77;5.60;;;19.70;51.50;20.80;101803.00;;;;4909106;28;20580;-51
2022/05/08 07:30:23;;;;;;;7.17;5.13;;;19.70;51.60;20.80;101798.00;;;;5033637;28;20241;-52
2022/05/08 07:32:49;;;;;;;11.60;7.43;;;19.70;51.60;20.80;101808.00;;;;5034963;28;20167;-51
2022/05/08 07:37:59;;;;;;;9.10;5.57;;;19.70;51.50;20.80;101800.00;;;;5050550;28;20161;-51
2022/05/08 07:40:26;;;;;;;7.73;5.70;;;19.70;52.20;20.80;101799.00;;;;5051027;28;20217;-53
2022/05/08 07:42:52;;;;;;;9.83;5.80;;;19.70;51.60;20.80;101806.00;;;;5059743;28;20185;-52
2022/05/08 07:45:17;;;;;;;8.17;5.20;;;19.70;51.60;20.80;101815.00;;;;5052692;28;20182;-52
2022/05/08 07:47:43;;;;;;;6.17;5.23;;;19.70;51.60;20.80;101808.00;;;;5048270;28;20209;-52
2022/05/08 07:50:09;;;;;;;7.40;5.43;;;19.70;51.70;20.80;101819.00;;;;5034607;28;20203;-52
2022/05/08 07:52:39;;;;;;;7.13;5.03;;;19.60;51.80;20.80;101814.00;;;;5028375;28;20177;-52
2022/05/08 07:55:06;;;;;;;7.40;4.90;;;19.70;51.60;20.80;101815.00;;;;5029688;28;20191;-52
2022/05/08 07:57:31;;;;;;;7.17;5.00;;;19.70;51.80;20.80;101814.00;;;;5042807;28;20675;-53
2022/05/08 07:59:57;;;;;;;5.80;4.73;;;19.70;51.80;20.80;101821.00;;;;5039156;28;20174;-52
2022/05/08 08:02:23;;;;;;;6.10;5.17;;;19.70;51.90;20.80;101828.00;;;;5047094;28;20685;-53
2022/05/08 08:04:48;;;;;;;5.33;4.70;;;19.70;52.00;20.80;101822.00;;;;5039742;28;20272;-52
2022/05/08 08:07:14;;;;;;;5.90;4.40;;;19.70;51.90;20.80;101833.00;;;;5049381;28;20252;-52
2022/05/08 08:09:40;;;;;;;5.03;4.40;;;19.80;51.90;20.80;101834.00;;;;5049806;28;20171;-52
2022/05/08 08:12:06;;;;;;;5.70;4.70;;;19.70;51.80;20.80;101832.00;;;;5049770;28;20170;-52
2022/05/08 08:14:32;;;;;;;5.57;4.47;;;19.70;51.90;20.80;101826.00;;;;5056554;28;20634;-52
2022/05/08 08:16:58;;;;;;;5.57;4.13;;;19.80;51.90;20.80;101834.00;;;;5070055;28;20186;-54
2022/05/08 08:19:23;;;;;;;5.93;4.33;;;19.80;52.50;20.90;101840.00;;;;5070510;28;20158;-52
2022/05/08 08:21:49;;;;;;;6.10;4.40;;;19.80;52.30;20.90;101836.00;;;;5061822;28;20732;-49
2022/05/08 08:24:15;;;;;;;5.23;4.10;;;19.70;52.20;20.90;101837.00;;;;5050224;28;20197;-51
2022/05/08 08:26:41;;;;;;;7.10;4.70;;;19.80;52.30;20.90;101850.00;;;;4986151;28;20249;-52
2022/05/08 08:29:07;;;;;;;5.90;4.30;;;19.80;52.80;20.90;101848.00;;;;5069965;28;20190;-49
2022/05/08 08:31:33;;;;;;;6.70;4.40;;;19.80;52.60;20.90;101854.00;;;;5072369;28;20545;-50
2022/05/08 08:33:59;;;;;;;6.87;4.17;;;19.80;52.70;20.90;101849.00;;;;5062560;28;20174;-50
2022/05/08 08:36:24;;;;;;;6.43;4.60;;;19.80;52.60;21.00;101849.00;;;;5049609;28;20170;-51
2022/05/08 08:38:50;;;;;;;6.07;4.00;;;19.80;52.60;21.00;101853.00;;;;5049683;28;20173;-52
2022/05/08 08:41:19;;;;;;;5.27;4.23;;;19.80;52.60;21.00;101853.00;;;;5049637;28;20257;-51
2022/05/08 08:49:21;;;;;;;5.17;3.90;;;19.80;53.00;21.00;101852.00;;;;5058853;28;20223;-50
2022/05/08 08:51:48;;;;;;;6.27;3.50;;;19.80;53.00;21.00;101849.00;;;;5055946;28;20162;-53
2022/05/08 08:54:15;;;;;;;4.60;3.80;;;19.90;53.00;21.00;101846.00;;;;5069364;28;20205;-53
2022/05/08 08:56:41;;;;;;;6.33;3.43;;;19.90;53.00;21.00;101846.00;;;;5055760;28;20174;-52
2022/05/08 08:59:06;;;;;;;5.53;3.90;;;19.90;53.00;21.00;101845.00;;;;5048907;28;20541;-52
2022/05/08 09:01:40;;;;;;;5.93;3.70;;;19.90;53.30;21.10;101845.00;;;;5048862;28;20249;-50
2022/05/08 09:04:06;;;;;;;4.87;3.80;;;19.90;53.50;21.00;101850.00;;;;5050242;28;20582;-50
2022/05/08 09:06:42;;;;;;;4.83;3.30;;;19.90;53.50;21.10;101852.00;;;;5067091;28;20174;-49
2022/05/08 09:09:33;;;;;;;5.50;3.50;;;20.00;53.50;21.10;101851.00;;;;5069356;28;20246;-50
2022/05/08 09:11:58;;;;;;;5.00;3.70;;;19.90;53.60;21.10;101860.00;;;;5068859;28;20170;-50
2022/05/08 09:14:35;;;;;;;4.03;3.50;;;20.00;53.50;21.10;101850.00;;;;5068677;28;20205;-49
2022/05/08 09:17:05;;;;;;;5.13;3.53;;;20.00;53.50;21.10;101844.00;;;;5068401;28;20704;-49
2022/05/08 09:19:38;;;;;;;4.33;3.40;;;20.00;53.60;21.10;101857.00;;;;5068805;28;20637;-50
2022/05/08 09:22:09;;;;;;;5.53;3.90;;;20.00;53.50;21.10;101851.00;;;;5068062;28;20155;-52
2022/05/08 09:24:38;;;;;;;3.80;3.40;;;20.00;53.50;21.10;101852.00;;;;5068909;28;20193;-51
2022/05/08 09:27:13;;;;;;;5.07;3.57;;;20.00;53.50;21.20;101849.00;;;;4994867;28;20166;-52
2022/05/08 09:29:40;;;;;;;4.67;3.60;;;20.00;53.50;21.20;101852.00;;;;5041315;28;20541;-49
2022/05/08 09:32:06;;;;;;;4.17;3.57;;;20.00;53.50;21.20;101846.00;;;;5038355;28;20175;-50
2022/05/08 09:34:58;;;;;;;3.60;3.30;;;20.00;53.50;21.20;101851.00;;;;5032087;28;20191;-50
2022/05/08 09:37:24;;;;;;;7.37;3.60;;;20.00;53.50;21.20;101865.00;;;;5034902;28;20212;-50
2022/05/08 09:39:50;;;;;;;4.43;3.50;;;20.00;53.70;21.20;101850.00;;;;5053780;28;20186;-50
2022/05/08 09:42:36;;;;;;;3.77;3.37;;;20.00;53.60;21.20;101844.00;;;;5061362;28;20174;-51
2022/05/08 09:45:07;;;;;;;6.03;3.70;;;20.10;53.70;21.20;101844.00;;;;5048792;28;20308;-52
2022/05/08 09:47:44;;;;;;;4.13;3.27;;;20.00;53.70;21.20;101851.00;;;;5053005;28;20559;-49
2022/05/08 09:50:11;;;;;;;4.27;3.57;;;20.00;53.70;21.20;101856.00;;;;5052110;28;20180;-50
2022/05/08 09:52:40;;;;;;;3.50;3.20;;;20.10;53.90;21.30;101851.00;;;;5048640;28;20168;-51
2022/05/08 09:55:08;;;;;;;3.77;3.30;;;20.10;53.90;21.20;101854.00;;;;5048022;28;20281;-53
2022/05/08 09:57:34;;;;;;;3.50;3.13;;;20.10;54.00;21.30;101859.00;;;;5048129;28;20174;-48
2022/05/08 10:00:01;;;;;;;4.50;3.20;;;20.10;54.00;21.30;101852.00;;;;5048934;28;20170;-52
2022/05/08 10:02:26;;;;;;;3.60;3.30;;;20.10;54.00;21.30;101846.00;;;;5048617;28;20180;-53
2022/05/08 10:04:53;;;;;;;6.90;3.40;;;20.10;54.10;21.30;101843.00;;;;5047021;28;20289;-52
2022/05/08 10:07:20;;;;;;;3.90;3.00;;;20.10;54.90;21.30;101841.00;;;;5048063;28;20201;-52
2022/05/08 10:15:18;;;;;;;4.10;3.03;;;20.20;54.30;21.30;101837.00;;;;5047368;28;20196;-50
2022/05/08 10:17:44;;;;;;;4.30;3.13;;;20.20;54.50;21.30;101842.00;;;;5048039;28;20168;-49
2022/05/08 10:20:10;;;;;;;4.17;3.30;;;20.10;54.40;21.30;101840.00;;;;5048043;28;20167;-51
2022/05/08 10:22:49;;;;;;;3.70;3.30;;;20.10;54.40;21.30;101843.00;;;;5047437;28;20187;-50
2022/05/08 10:25:15;;;;;;;3.30;3.00;;;20.20;54.60;21.30;101835.00;;;;5048004;28;20194;-49
2022/05/08 10:27:41;;;;;;;3.73;3.10;;;20.20;54.60;21.40;101835.00;;;;4984887;28;20199;-50
2022/05/08 10:30:06;;;;;;;3.30;3.00;;;20.20;54.70;21.40;101839.00;;;;5050761;28;20281;-53
2022/05/08 10:32:32;;;;;;;6.27;3.30;;;20.20;54.60;21.40;101837.00;;;;5051896;28;20178;-51
2022/05/08 10:35:22;;;;;;;4.37;2.97;;;20.20;54.50;21.40;101835.00;;;;5051575;28;20240;-51
2022/05/08 10:38:03;;;;;;;4.23;3.00;;;20.20;54.60;21.40;101837.00;;;;5052001;28;20175;-50
2022/05/08 10:40:28;;;;;;;4.37;2.93;;;20.30;54.70;21.40;101832.00;;;;5051595;28;20197;-52
2022/05/08 10:43:10;;;;;;;5.13;2.80;;;20.30;54.10;21.40;101833.00;;;;5051741;28;20653;-51
2022/05/08 10:45:39;;;;;;;5.83;3.10;;;20.30;54.40;21.40;101820.00;;;;5051368;28;20206;-52
2022/05/08 10:48:16;;;;;;;5.80;3.60;;;20.30;55.00;21.40;101823.00;;;;5040527;28;20209;-54
2022/05/08 10:50:56;;;;;;;5.80;3.27;;;20.30;54.40;21.50;101825.00;;;;5040292;28;20173;-51
2022/05/08 10:53:35;;;;;;;6.90;3.60;;;20.30;54.40;21.10;101822.00;;;;5040276;28;20226;-50
2022/05/08 10:56:09;;;;;;;5.07;3.10;;;20.30;54.10;21.50;101829.00;;;;5039435;28;20192;-52
2022/05/08 10:58:37;;;;;;;3.40;2.73;;;20.30;54.00;21.50;101811.00;;;;5039385;28;20576;-52
2022/05/08 11:01:05;;;;;;;7.57;2.93;;;20.40;54.10;21.50;101823.00;;;;5039777;28;20179;-51
2022/05/08 11:03:35;;;;;;;5.00;2.93;;;20.40;54.10;21.50;101822.00;;;;5040438;28;20197;-50
2022/05/08 11:06:01;;;;;;;7.23;2.87;;;20.40;53.90;21.50;101817.00;;;;5029625;28;20742;-51
2022/05/08 11:08:34;;;;;;;5.73;3.00;;;20.40;53.80;21.50;101810.00;;;;5031103;28;20245;-50
2022/05/08 11:11:08;;;;;;;5.03;2.90;;;20.40;53.70;21.50;101818.00;;;;5030970;28;20154;-50
2022/05/08 11:13:44;;;;;;;6.30;2.80;;;20.40;53.60;21.50;101810.00;;;;5031330;28;20169;-49
2022/05/08 11:16:12;;;;;;;5.00;2.90;;;20.40;53.70;21.60;101821.00;;;;5031122;28;20167;-51
2022/05/08 11:18:38;;;;;;;6.43;2.90;;;20.40;53.80;21.60;101822.00;;;;5031041;28;20707;-50